Time;durP1;ratioP1;P1;durP2;ratioP2;P2;SDS_P1;SDS_P2;PMS_P1;PMS_P2;Temp;Humidity;BMP_temperature;BMP_pressure;BME280_temperature;BME280_humidity;BME280_pressure;Samples;Min_cycle;Max_cycle;Signal;HPM_P1;HPM_P2
2022/03/12 00:01:26;;;;;;;0.30;0.30;;;3.00;56.40;;;;;;5014610;28;20033;-73
2022/03/12 00:03:54;;;;;;;0.40;0.40;;;2.80;56.30;;;;;;5013835;28;20018;-73
2022/03/12 00:06:21;;;;;;;0.93;0.93;;;2.80;56.80;;;;;;5013423;28;20026;-76
2022/03/12 00:08:47;;;;;;;0.80;0.80;;;2.80;56.90;;;;;;5014704;28;20030;-73
2022/03/12 00:11:17;;;;;;;16.92;5.40;;;2.80;56.70;;;;;;5014156;28;20440;-77
2022/03/12 00:13:44;;;;;;;0.40;0.40;;;2.70;56.60;;;;;;5013227;28;20018;-76
2022/03/12 00:16:14;;;;;;;3.30;3.10;;;2.60;56.90;;;;;;5013478;28;20153;-77
2022/03/12 00:18:42;;;;;;;0.63;0.63;;;2.80;56.70;;;;;;4996915;28;20033;-77
2022/03/12 00:21:12;;;;;;;0.40;0.40;;;2.80;56.40;;;;;;4997071;28;20026;-77
2022/03/12 00:23:41;;;;;;;0.52;0.52;;;2.70;56.60;;;;;;4996813;28;20438;-77
2022/03/12 00:26:07;;;;;;;0.47;0.47;;;2.80;56.40;;;;;;4996934;28;20088;-77
2022/03/12 00:28:33;;;;;;;19.77;2.83;;;2.60;56.80;;;;;;5013384;28;20037;-77
2022/03/12 00:30:59;;;;;;;0.40;0.40;;;2.70;56.70;;;;;;5013499;28;20022;-77
2022/03/12 00:33:25;;;;;;;0.60;0.60;;;2.60;56.70;;;;;;5013228;28;20389;-76
2022/03/12 00:35:52;;;;;;;0.40;0.40;;;2.60;56.50;;;;;;4996732;28;20444;-77
2022/03/12 00:38:21;;;;;;;0.77;0.77;;;2.60;56.80;;;;;;4996860;28;20097;-77
2022/03/12 00:40:47;;;;;;;0.40;0.40;;;2.50;56.90;;;;;;4996580;28;20481;-76
2022/03/12 00:43:15;;;;;;;0.40;0.40;;;2.50;57.60;;;;;;4996946;28;20026;-77
2022/03/12 00:45:41;;;;;;;1.75;1.65;;;2.50;57.60;;;;;;5012901;28;20270;-76
2022/03/12 00:48:07;;;;;;;1.35;1.35;;;2.20;57.90;;;;;;4997228;28;20161;-77
2022/03/12 00:50:34;;;;;;;0.68;0.68;;;2.10;58.90;;;;;;4984836;28;20027;-77
2022/03/12 00:53:01;;;;;;;0.95;0.95;;;1.90;59.40;;;;;;4994810;28;20507;-77
2022/03/12 00:55:27;;;;;;;12.60;11.60;;;1.80;60.40;;;;;;4977586;28;20034;-77
2022/03/12 00:57:54;;;;;;;0.50;0.50;;;1.80;60.40;;;;;;5009541;28;20034;-77
2022/03/12 01:00:23;;;;;;;0.43;0.43;;;1.60;61.20;;;;;;5002783;28;20040;-77
2022/03/12 01:02:50;;;;;;;0.40;0.40;;;1.50;61.50;;;;;;5012929;28;20031;-77
2022/03/12 01:05:45;;;;;;;0.60;0.60;;;1.40;62.70;;;;;;4996472;28;20057;-77
2022/03/12 01:08:11;;;;;;;18.85;11.80;;;1.60;63.00;;;;;;5008255;28;20095;-77
2022/03/12 01:10:37;;;;;;;0.50;0.50;;;1.70;62.20;;;;;;5013335;28;20448;-77
2022/03/12 01:13:03;;;;;;;0.50;0.50;;;1.50;62.80;;;;;;4996708;28;20030;-77
2022/03/12 01:15:29;;;;;;;1.02;0.93;;;1.60;63.00;;;;;;4997082;28;20068;-77
2022/03/12 01:17:55;;;;;;;0.85;0.85;;;1.70;63.00;;;;;;4996964;28;20505;-77
2022/03/12 01:20:24;;;;;;;1.08;0.95;;;1.70;62.60;;;;;;5013080;28;20488;-77
2022/03/12 01:22:50;;;;;;;0.70;0.70;;;1.60;62.40;;;;;;5012621;28;20034;-77
2022/03/12 01:25:17;;;;;;;1.33;1.23;;;1.50;63.00;;;;;;4996105;28;20022;-77
2022/03/12 01:27:43;;;;;;;0.70;0.70;;;1.50;62.80;;;;;;5011870;28;20053;-77
2022/03/12 01:30:09;;;;;;;0.40;0.40;;;1.50;63.20;;;;;;4976859;28;20058;-77
2022/03/12 01:32:35;;;;;;;0.45;0.45;;;1.40;63.30;;;;;;4993216;28;20022;-77
2022/03/12 01:35:02;;;;;;;0.65;0.65;;;1.20;63.90;;;;;;4976834;28;20057;-77
2022/03/12 01:37:28;;;;;;;0.60;0.60;;;1.30;64.00;;;;;;4976773;28;20381;-77
2022/03/12 01:39:54;;;;;;;1.63;1.52;;;1.50;63.40;;;;;;4992635;28;20030;-77
2022/03/12 01:42:27;;;;;;;4.47;1.90;;;1.70;62.70;;;;;;4992651;28;20102;-77
2022/03/12 01:44:53;;;;;;;0.40;0.40;;;1.80;61.90;;;;;;4993698;28;20173;-77
2022/03/12 01:47:20;;;;;;;0.40;0.40;;;1.70;61.60;;;;;;4976419;28;20033;-77
2022/03/12 01:49:48;;;;;;;0.43;0.43;;;1.70;61.90;;;;;;4976518;28;20034;-78
2022/03/12 01:52:14;;;;;;;0.40;0.40;;;1.70;61.70;;;;;;4976233;28;20486;-77
2022/03/12 01:54:41;;;;;;;0.40;0.40;;;1.70;61.30;;;;;;4992776;28;20026;-77
2022/03/12 01:57:09;;;;;;;1.85;0.98;;;1.70;61.20;;;;;;4992124;28;20062;-77
2022/03/12 01:59:38;;;;;;;0.65;0.65;;;1.80;61.80;;;;;;4976105;28;20556;-77
2022/03/12 02:02:08;;;;;;;0.40;0.40;;;1.80;61.50;;;;;;4992514;28;20023;-77
2022/03/12 02:04:36;;;;;;;0.40;0.40;;;1.90;61.00;;;;;;4976468;28;20478;-78
2022/03/12 02:07:02;;;;;;;0.45;0.45;;;2.10;59.90;;;;;;4992198;28;20023;-77
2022/03/12 02:09:28;;;;;;;7.82;7.07;;;2.20;59.60;;;;;;4976212;28;20517;-78
2022/03/12 02:11:54;;;;;;;26.50;7.43;;;2.30;59.40;;;;;;4976350;28;20026;-77
2022/03/12 02:14:23;;;;;;;0.70;0.70;;;2.20;59.40;;;;;;4976463;28;20031;-77
2022/03/12 02:16:54;;;;;;;0.40;0.40;;;2.20;59.30;;;;;;4975923;28;20394;-77
2022/03/12 02:19:22;;;;;;;0.50;0.50;;;2.40;59.00;;;;;;4992479;28;20105;-77
2022/03/12 02:21:52;;;;;;;0.40;0.40;;;2.50;58.60;;;;;;4979969;28;20504;-77
2022/03/12 02:24:21;;;;;;;0.40;0.40;;;2.40;59.40;;;;;;4996478;28;20050;-77
2022/03/12 02:26:47;;;;;;;0.40;0.40;;;2.30;59.00;;;;;;4979801;28;20026;-77
2022/03/12 02:29:20;;;;;;;0.40;0.40;;;2.50;58.80;;;;;;4980056;28;20030;-77
2022/03/12 02:31:54;;;;;;;1.25;1.25;;;2.60;58.30;;;;;;4996202;28;20037;-76
2022/03/12 02:34:22;;;;;;;0.40;0.40;;;2.60;58.80;;;;;;4995932;28;20509;-76
2022/03/12 02:36:50;;;;;;;0.70;0.70;;;2.80;58.20;;;;;;4995829;28;20018;-76
2022/03/12 02:39:17;;;;;;;0.40;0.40;;;2.60;58.20;;;;;;4995798;28;20034;-76
2022/03/12 02:41:43;;;;;;;1.08;1.08;;;2.40;58.70;;;;;;4995895;28;20415;-76
2022/03/12 02:44:20;;;;;;;0.50;0.50;;;2.10;59.50;;;;;;4995913;28;20030;-78
2022/03/12 02:47:20;;;;;;;0.70;0.70;;;1.80;60.40;;;;;;4995529;28;20026;-78
2022/03/12 02:49:54;;;;;;;2.33;0.85;;;1.60;61.40;;;;;;4979678;28;20030;-78
2022/03/12 02:52:22;;;;;;;0.93;0.93;;;1.40;61.90;;;;;;4995748;28;20023;-77
2022/03/12 02:54:50;;;;;;;0.50;0.50;;;1.00;63.10;;;;;;4979490;28;20023;-78
2022/03/12 02:57:16;;;;;;;1.23;0.63;;;0.50;66.00;;;;;;4979147;28;20483;-78
2022/03/12 02:59:44;;;;;;;0.63;0.63;;;0.30;67.30;;;;;;4979166;28;20022;-77
2022/03/12 03:02:12;;;;;;;0.88;0.88;;;0.40;67.50;;;;;;5012274;28;20073;-78
2022/03/12 03:04:40;;;;;;;0.40;0.40;;;0.50;67.10;;;;;;4979412;28;20029;-78
2022/03/12 03:07:07;;;;;;;0.52;0.52;;;0.50;67.00;;;;;;4995444;28;20330;-78
2022/03/12 03:09:33;;;;;;;0.40;0.40;;;0.40;66.90;;;;;;4979196;28;20026;-78
2022/03/12 03:12:03;;;;;;;3.40;2.15;;;0.40;67.00;;;;;;4996701;28;20053;-78
2022/03/12 03:14:30;;;;;;;0.80;0.75;;;0.50;66.90;;;;;;4979507;28;20031;-78
2022/03/12 03:16:58;;;;;;;2.17;2.08;;;0.40;67.40;;;;;;4995378;28;20031;-78
2022/03/12 03:19:28;;;;;;;0.50;0.50;;;0.40;67.00;;;;;;4995362;28;20030;-78
2022/03/12 03:21:56;;;;;;;3.42;3.25;;;0.50;67.10;;;;;;4995260;28;20398;-78
2022/03/12 03:24:23;;;;;;;0.70;0.70;;;0.30;67.60;;;;;;4978931;28;20072;-78
2022/03/12 03:26:51;;;;;;;5.13;2.30;;;0.20;68.20;;;;;;4979609;28;20398;-78
2022/03/12 03:29:19;;;;;;;0.50;0.50;;;0.30;67.70;;;;;;4979279;28;20486;-78
2022/03/12 03:31:46;;;;;;;0.45;0.45;;;0.60;67.40;;;;;;4993813;28;20093;-78
2022/03/12 03:34:13;;;;;;;0.70;0.70;;;0.70;66.40;;;;;;4995002;28;20397;-78
2022/03/12 03:36:39;;;;;;;0.40;0.40;;;0.80;66.20;;;;;;4994757;28;20038;-77
2022/03/12 03:39:06;;;;;;;11.90;3.05;;;0.80;66.00;;;;;;4996374;28;20105;-77
2022/03/12 03:41:33;;;;;;;0.40;0.40;;;0.70;66.10;;;;;;4978840;28;20030;-77
2022/03/12 03:43:59;;;;;;;7.15;1.05;;;0.60;66.40;;;;;;4994751;28;20026;-77
2022/03/12 03:46:25;;;;;;;3.67;3.40;;;0.80;66.40;;;;;;4978664;28;20031;-78
2022/03/12 03:48:53;;;;;;;0.40;0.40;;;0.90;65.90;;;;;;4994858;28;20114;-78
2022/03/12 03:51:20;;;;;;;0.60;0.60;;;0.80;65.80;;;;;;4994969;28;20033;-78
2022/03/12 03:53:46;;;;;;;0.73;0.73;;;0.90;65.90;;;;;;4994550;28;20030;-78
2022/03/12 03:56:12;;;;;;;1.83;1.73;;;0.90;65.60;;;;;;4994557;28;20027;-78
2022/03/12 03:58:39;;;;;;;0.52;0.52;;;0.90;65.90;;;;;;4978547;28;20393;-78
2022/03/12 04:01:12;;;;;;;0.90;0.90;;;1.00;65.90;;;;;;4995954;28;20031;-78
2022/03/12 04:03:42;;;;;;;0.70;0.70;;;1.10;65.60;;;;;;4994379;28;20080;-78
2022/03/12 04:06:08;;;;;;;9.27;2.15;;;1.00;64.90;;;;;;4994514;28;20027;-77
2022/03/12 04:08:35;;;;;;;2.88;1.92;;;0.60;66.00;;;;;;4994439;28;20019;-78
2022/03/12 04:11:04;;;;;;;0.88;0.88;;;0.30;67.30;;;;;;4977956;28;20138;-78
2022/03/12 04:13:31;;;;;;;7.63;1.40;;;0.30;68.20;;;;;;4993897;28;20050;-79
2022/03/12 04:16:00;;;;;;;2.03;1.45;;;0.10;68.40;;;;;;5010234;28;20019;-78
2022/03/12 04:18:26;;;;;;;3.22;1.58;;;-0.20;69.90;;;;;;5009938;28;20034;-78
2022/03/12 04:20:53;;;;;;;0.50;0.50;;;-0.60;70.80;;;;;;4994819;28;20025;-78
2022/03/12 04:23:21;;;;;;;0.60;0.60;;;-0.50;71.40;;;;;;5009400;28;20038;-78
2022/03/12 04:25:53;;;;;;;1.45;0.77;;;-0.60;71.40;;;;;;4993231;28;20023;-78
2022/03/12 04:28:21;;;;;;;1.27;1.25;;;-0.50;71.90;;;;;;4994758;28;20026;-78
2022/03/12 04:30:47;;;;;;;0.90;0.90;;;-0.30;71.60;;;;;;4993245;28;20438;-78
2022/03/12 04:33:14;;;;;;;0.50;0.50;;;-0.20;71.00;;;;;;4993412;28;20030;-78
2022/03/12 04:35:42;;;;;;;2.05;1.95;;;-0.20;70.20;;;;;;4993110;28;20387;-78
2022/03/12 04:38:12;;;;;;;1.02;0.95;;;-0.20;70.50;;;;;;4993169;28;20121;-78
2022/03/12 04:40:43;;;;;;;0.98;0.93;;;-0.10;71.00;;;;;;4977224;28;20030;-78
2022/03/12 04:43:11;;;;;;;1.95;1.85;;;0.10;70.90;;;;;;4992753;28;20019;-78
2022/03/12 04:45:38;;;;;;;0.50;0.50;;;0.10;70.10;;;;;;4993256;28;20475;-78
2022/03/12 04:48:04;;;;;;;0.50;0.50;;;0.10;70.00;;;;;;4976949;28;20113;-78
2022/03/12 04:50:30;;;;;;;1.08;0.98;;;0.10;70.20;;;;;;4977301;28;20319;-78
2022/03/12 04:53:01;;;;;;;0.90;0.85;;;0.00;70.90;;;;;;4993517;28;20026;-77
2022/03/12 04:55:29;;;;;;;0.50;0.50;;;-0.10;71.40;;;;;;4976864;28;20047;-78
2022/03/12 04:57:55;;;;;;;2.30;2.15;;;0.00;71.00;;;;;;4977489;28;20066;-78
2022/03/12 05:00:26;;;;;;;0.65;0.65;;;0.10;70.80;;;;;;4993206;28;20034;-78
2022/03/12 05:03:06;;;;;;;0.47;0.47;;;0.30;70.60;;;;;;4976836;28;20023;-78
2022/03/12 05:05:31;;;;;;;0.50;0.50;;;0.40;70.50;;;;;;5009403;28;20109;-78
2022/03/12 05:07:59;;;;;;;3.13;3.03;;;0.30;70.10;;;;;;4993148;28;20061;-78
2022/03/12 05:10:29;;;;;;;0.70;0.70;;;0.40;70.20;;;;;;4992993;28;20030;-78
2022/03/12 05:13:00;;;;;;;1.23;1.05;;;0.30;69.90;;;;;;4994401;28;20061;-78
2022/03/12 05:15:31;;;;;;;0.50;0.50;;;0.30;70.40;;;;;;5009286;28;20022;-78
2022/03/12 05:17:57;;;;;;;0.57;0.57;;;0.10;70.80;;;;;;4977053;28;20052;-78
2022/03/12 05:20:27;;;;;;;1.38;1.33;;;0.20;70.70;;;;;;4993026;28;20121;-78
2022/03/12 05:22:53;;;;;;;3.60;1.42;;;0.10;71.00;;;;;;5019488;23;20037;-75
2022/03/12 05:25:20;;;;;;;0.47;0.47;;;0.20;71.00;;;;;;5029612;28;20106;-75
2022/03/12 05:27:47;;;;;;;0.63;0.63;;;0.30;70.80;;;;;;5047314;28;20028;-75
2022/03/12 05:30:14;;;;;;;0.40;0.40;;;0.20;70.90;;;;;;5032170;28;20037;-76
2022/03/12 05:32:39;;;;;;;0.43;0.43;;;0.30;70.90;;;;;;5030860;28;20120;-75
2022/03/12 05:35:06;;;;;;;0.52;0.52;;;0.50;70.70;;;;;;5030814;28;20065;-75
2022/03/12 05:37:32;;;;;;;9.40;2.10;;;0.50;70.80;;;;;;5031567;28;20068;-75
2022/03/12 05:39:58;;;;;;;1.15;1.15;;;0.40;70.90;;;;;;5032089;28;20423;-75
2022/03/12 05:42:25;;;;;;;1.33;1.25;;;0.30;70.70;;;;;;5014212;28;20477;-75
2022/03/12 05:44:54;;;;;;;0.82;0.82;;;0.20;71.30;;;;;;5047270;28;20095;-75
2022/03/12 05:47:23;;;;;;;0.95;0.95;;;0.30;71.50;;;;;;5031769;28;20025;-75
2022/03/12 05:49:49;;;;;;;0.68;0.68;;;0.30;71.70;;;;;;5031960;28;20503;-75
2022/03/12 05:52:17;;;;;;;1.45;1.35;;;0.40;71.20;;;;;;5030595;28;20030;-75
2022/03/12 05:54:44;;;;;;;10.65;9.90;;;0.50;70.20;;;;;;5032813;28;20021;-75
2022/03/12 05:57:10;;;;;;;1.95;1.17;;;0.20;71.20;;;;;;5035978;28;20033;-75
2022/03/12 05:59:35;;;;;;;0.50;0.50;;;0.20;72.40;;;;;;5035828;28;20473;-75
2022/03/12 06:02:01;;;;;;;2.10;2.00;;;0.30;72.20;;;;;;5051178;28;20029;-75
2022/03/12 06:04:27;;;;;;;0.65;0.60;;;0.30;72.20;;;;;;5034312;28;20110;-75
2022/03/12 06:06:57;;;;;;;1.08;1.08;;;0.20;72.90;;;;;;5017845;28;20024;-75
2022/03/12 06:09:22;;;;;;;0.82;0.82;;;0.30;72.50;;;;;;5017862;28;20064;-75
2022/03/12 06:11:58;;;;;;;1.23;1.13;;;0.40;72.60;;;;;;5035649;28;20049;-75
2022/03/12 06:14:24;;;;;;;0.50;0.50;;;0.20;72.90;;;;;;5034337;28;20044;-75
2022/03/12 06:16:50;;;;;;;0.50;0.50;;;-0.20;75.00;;;;;;5034206;28;20025;-75
2022/03/12 06:19:19;;;;;;;3.10;1.30;;;-0.20;76.60;;;;;;5035388;28;20028;-75
2022/03/12 06:21:46;;;;;;;2.63;2.42;;;0.10;76.10;;;;;;5017610;28;20026;-75
2022/03/12 06:24:12;;;;;;;1.05;1.05;;;0.10;75.80;;;;;;5050699;28;20037;-75
2022/03/12 06:26:42;;;;;;;2.13;2.03;;;0.00;76.40;;;;;;5017799;28;20402;-75
2022/03/12 06:29:09;;;;;;;0.52;0.52;;;0.20;77.80;;;;;;5034073;28;20033;-75
2022/03/12 06:31:35;;;;;;;0.45;0.45;;;0.50;77.40;;;;;;5035198;28;20389;-75
2022/03/12 06:34:02;;;;;;;1.73;1.63;;;0.70;76.40;;;;;;5035163;28;20026;-75
2022/03/12 06:36:28;;;;;;;1.92;1.83;;;0.90;75.20;;;;;;5033793;28;20033;-75
2022/03/12 06:38:54;;;;;;;3.03;2.75;;;0.90;75.30;;;;;;5035225;28;20034;-75
2022/03/12 06:41:20;;;;;;;1.30;1.30;;;1.10;75.20;;;;;;5050476;28;20516;-75
2022/03/12 06:43:47;;;;;;;1.35;1.25;;;1.50;74.70;;;;;;5017390;28;20112;-75
2022/03/12 06:46:16;;;;;;;0.30;0.30;;;1.70;73.60;;;;;;5034817;28;20017;-76
2022/03/12 06:48:42;;;;;;;0.40;0.40;;;2.00;72.30;;;;;;5034971;28;20358;-75
2022/03/12 06:51:13;;;;;;;3.03;2.72;;;2.10;72.00;;;;;;5016904;28;20094;-76
2022/03/12 06:53:39;;;;;;;0.50;0.50;;;1.90;72.00;;;;;;5035116;28;20025;-75
2022/03/12 06:56:06;;;;;;;2.05;1.95;;;1.80;73.50;;;;;;5033434;28;20057;-75
2022/03/12 06:58:33;;;;;;;0.40;0.40;;;1.60;74.50;;;;;;5033581;28;20492;-75
2022/03/12 07:00:59;;;;;;;0.40;0.40;;;1.70;74.50;;;;;;5034628;28;20067;-75
2022/03/12 07:03:25;;;;;;;0.43;0.43;;;1.90;73.60;;;;;;5034634;28;20040;-76
2022/03/12 07:05:51;;;;;;;0.40;0.40;;;1.80;73.90;;;;;;5033252;28;20100;-75
2022/03/12 07:08:19;;;;;;;0.50;0.50;;;1.80;73.80;;;;;;5033239;28;20075;-75
2022/03/12 07:10:46;;;;;;;2.55;2.05;;;1.80;74.10;;;;;;5033395;28;20504;-75
2022/03/12 07:13:12;;;;;;;1.20;1.10;;;2.10;73.70;;;;;;5049724;28;20438;-75
2022/03/12 07:15:38;;;;;;;0.50;0.50;;;2.20;73.70;;;;;;5033227;28;20068;-75
2022/03/12 07:18:04;;;;;;;0.32;0.32;;;2.10;73.60;;;;;;5016701;28;20056;-75
2022/03/12 07:20:30;;;;;;;0.40;0.40;;;2.30;73.80;;;;;;5034232;28;20484;-75
2022/03/12 07:22:56;;;;;;;0.40;0.40;;;2.40;73.50;;;;;;5034187;28;20108;-75
2022/03/12 07:25:22;;;;;;;0.40;0.40;;;2.60;74.00;;;;;;5032891;28;20373;-75
2022/03/12 07:27:48;;;;;;;0.30;0.30;;;2.80;74.30;;;;;;5032860;28;20025;-75
2022/03/12 07:30:15;;;;;;;0.30;0.30;;;3.00;73.50;;;;;;5032779;28;20036;-75
2022/03/12 07:32:42;;;;;;;0.40;0.40;;;3.20;74.50;;;;;;5016275;28;20487;-75
2022/03/12 07:35:11;;;;;;;0.40;0.40;;;3.40;74.80;;;;;;5032943;28;20060;-75
2022/03/12 07:37:37;;;;;;;1.85;1.75;;;3.50;73.80;;;;;;5049412;28;20056;-75
2022/03/12 07:40:04;;;;;;;0.40;0.40;;;3.60;73.30;;;;;;5032596;28;20060;-76
2022/03/12 07:42:30;;;;;;;0.40;0.40;;;3.70;72.80;;;;;;5033932;28;20028;-75
2022/03/12 07:44:56;;;;;;;0.30;0.30;;;3.80;72.40;;;;;;5034024;28;20431;-75
2022/03/12 07:47:22;;;;;;;7.22;1.67;;;3.70;73.40;;;;;;5048921;28;20075;-75
2022/03/12 07:49:47;;;;;;;1.05;1.05;;;3.80;74.30;;;;;;5016414;28;20393;-75
2022/03/12 07:52:13;;;;;;;0.30;0.30;;;4.00;74.30;;;;;;5033718;28;20034;-75
2022/03/12 07:54:39;;;;;;;0.30;0.30;;;4.10;74.70;;;;;;5033676;28;20025;-75
2022/03/12 07:57:05;;;;;;;1.05;0.98;;;4.10;74.40;;;;;;5033501;28;20151;-75
2022/03/12 07:59:31;;;;;;;2.28;1.65;;;4.20;75.70;;;;;;5015723;28;20124;-75
2022/03/12 08:01:58;;;;;;;7.45;2.05;;;4.40;76.20;;;;;;5033691;28;20136;-75
2022/03/12 08:04:25;;;;;;;0.50;0.50;;;4.50;76.00;;;;;;5033467;28;20013;-75
2022/03/12 08:06:52;;;;;;;0.40;0.40;;;4.50;75.70;;;;;;5048276;28;20036;-75
2022/03/12 08:09:17;;;;;;;1.55;0.95;;;4.70;75.20;;;;;;5048783;28;20512;-75
2022/03/12 08:11:43;;;;;;;0.30;0.30;;;4.80;74.20;;;;;;5048740;28;20029;-75
2022/03/12 08:14:15;;;;;;;0.40;0.40;;;4.90;74.10;;;;;;5048673;28;20029;-75
2022/03/12 08:16:41;;;;;;;8.00;5.10;;;5.00;72.80;;;;;;5033149;28;20026;-75
2022/03/12 08:19:08;;;;;;;0.38;0.38;;;5.20;70.50;;;;;;5031914;28;20116;-75
2022/03/12 08:21:35;;;;;;;2.13;1.75;;;5.20;70.10;;;;;;5033219;28;20025;-75
2022/03/12 08:24:02;;;;;;;0.35;0.35;;;5.40;69.70;;;;;;5032870;28;20029;-75
2022/03/12 08:26:30;;;;;;;7.45;1.10;;;5.50;69.20;;;;;;5015068;28;20025;-75
2022/03/12 08:28:56;;;;;;;0.50;0.50;;;5.70;68.90;;;;;;5015120;28;20448;-75
2022/03/12 08:31:22;;;;;;;1.95;1.85;;;5.90;68.90;;;;;;5031604;28;20381;-75
2022/03/12 08:33:48;;;;;;;0.30;0.30;;;6.10;67.20;;;;;;5031320;28;20034;-75
2022/03/12 08:36:14;;;;;;;0.20;0.20;;;6.20;66.90;;;;;;5015008;28;20025;-74
2022/03/12 08:38:41;;;;;;;0.30;0.30;;;6.50;66.50;;;;;;5031660;28;20477;-75
2022/03/12 08:41:08;;;;;;;2.53;1.77;;;6.70;66.20;;;;;;5015474;28;20044;-75
2022/03/12 08:43:36;;;;;;;1.10;1.00;;;6.80;65.90;;;;;;5014986;28;20107;-75
2022/03/12 08:46:04;;;;;;;0.30;0.30;;;7.00;64.70;;;;;;5032330;28;20053;-75
2022/03/12 08:48:30;;;;;;;0.30;0.30;;;7.10;64.50;;;;;;5032645;28;20040;-75
2022/03/12 08:50:56;;;;;;;0.40;0.40;;;7.20;64.20;;;;;;5031499;28;20028;-76
2022/03/12 08:53:21;;;;;;;2.53;2.40;;;7.40;63.40;;;;;;5031432;28;20053;-75
2022/03/12 08:55:48;;;;;;;1.55;1.48;;;7.60;63.00;;;;;;5031448;28;20414;-75
2022/03/12 08:58:14;;;;;;;0.45;0.45;;;7.70;61.50;;;;;;5030155;28;20026;-75
2022/03/12 09:00:42;;;;;;;21.92;20.27;;;7.70;61.80;;;;;;5031168;28;20029;-75
2022/03/12 09:03:09;;;;;;;0.30;0.30;;;7.80;60.30;;;;;;5027828;28;20034;-75
2022/03/12 09:05:36;;;;;;;0.28;0.28;;;8.00;60.50;;;;;;5017494;28;20109;-75
2022/03/12 09:08:02;;;;;;;9.23;2.60;;;8.20;60.50;;;;;;5014897;28;20183;-75
2022/03/12 09:10:32;;;;;;;10.32;6.75;;;8.50;61.70;;;;;;5030879;28;20032;-75
2022/03/12 09:12:58;;;;;;;0.45;0.45;;;8.60;58.90;;;;;;5014482;28;20029;-75
2022/03/12 09:15:24;;;;;;;4.63;4.22;;;8.80;59.30;;;;;;5030702;28;20040;-75
2022/03/12 09:17:53;;;;;;;11.18;4.45;;;9.10;57.80;;;;;;5029913;28;20021;-75
2022/03/12 09:20:19;;;;;;;22.48;9.52;;;9.30;57.40;;;;;;5029059;28;20025;-75
2022/03/12 09:22:46;;;;;;;1.70;1.60;;;9.70;55.90;;;;;;5029575;28;20091;-75
2022/03/12 09:25:13;;;;;;;29.75;3.17;;;10.10;55.70;;;;;;5030421;28;20036;-75
2022/03/12 09:27:44;;;;;;;19.50;18.05;;;10.50;54.90;;;;;;5031847;28;20021;-75
2022/03/12 09:30:12;;;;;;;1.15;1.15;;;10.90;53.30;;;;;;5031574;28;20079;-75
2022/03/12 09:32:38;;;;;;;2.47;2.10;;;11.40;51.80;;;;;;5031976;28;20030;-75
2022/03/12 09:35:05;;;;;;;0.60;0.60;;;11.80;51.40;;;;;;5032130;28;20136;-75
2022/03/12 09:37:32;;;;;;;4.40;3.25;;;12.00;50.50;;;;;;5030660;28;20055;-75
2022/03/12 09:39:59;;;;;;;1.70;1.60;;;12.20;49.40;;;;;;5030830;28;20504;-75
2022/03/12 09:42:28;;;;;;;0.20;0.20;;;12.20;49.20;;;;;;5030745;28;20029;-75
2022/03/12 09:44:54;;;;;;;4.43;0.73;;;12.40;49.00;;;;;;5047245;28;20029;-75
2022/03/12 09:47:20;;;;;;;14.80;4.97;;;12.80;48.40;;;;;;5031778;28;20028;-75
2022/03/12 09:49:46;;;;;;;7.97;3.63;;;13.10;47.00;;;;;;5030667;28;20461;-75
2022/03/12 09:52:11;;;;;;;4.22;2.67;;;13.10;46.90;;;;;;5030062;28;20019;-75
2022/03/12 09:54:37;;;;;;;0.90;0.90;;;13.40;46.60;;;;;;5030915;28;20030;-75
2022/03/12 09:57:03;;;;;;;0.20;0.20;;;13.60;46.00;;;;;;5013938;28;20026;-75
2022/03/12 09:59:29;;;;;;;13.40;6.40;;;14.10;44.80;;;;;;5029681;28;20401;-75
2022/03/12 10:01:55;;;;;;;2.60;1.55;;;14.50;44.00;;;;;;5031819;28;20029;-75
2022/03/12 10:04:21;;;;;;;3.80;1.52;;;14.20;44.60;;;;;;5046678;28;20060;-75
2022/03/12 10:06:47;;;;;;;0.30;0.30;;;14.30;44.90;;;;;;5046738;28;20029;-75
2022/03/12 10:09:14;;;;;;;2.35;2.15;;;14.80;43.90;;;;;;5031013;28;20025;-75
2022/03/12 10:11:41;;;;;;;3.50;1.38;;;15.00;43.50;;;;;;5030908;28;20060;-75
2022/03/12 10:14:08;;;;;;;3.60;1.27;;;15.50;43.20;;;;;;5031252;28;20029;-76
2022/03/12 10:16:34;;;;;;;3.30;2.47;;;15.60;43.60;;;;;;5030463;28;20021;-75
2022/03/12 10:19:00;;;;;;;1.55;1.40;;;15.80;42.40;;;;;;5030202;28;20393;-76
2022/03/12 10:21:26;;;;;;;15.30;4.10;;;15.70;42.50;;;;;;5031515;28;20021;-76
2022/03/12 10:23:52;;;;;;;11.65;10.50;;;15.60;41.90;;;;;;5029972;28;20104;-75
2022/03/12 10:26:17;;;;;;;0.10;0.10;;;15.60;42.00;;;;;;5031489;28;20026;-76
2022/03/12 10:28:44;;;;;;;13.80;12.45;;;15.70;41.80;;;;;;5030588;28;20029;-75
2022/03/12 10:31:12;;;;;;;3.58;1.85;;;15.70;40.80;;;;;;5031559;28;20033;-75
2022/03/12 10:33:39;;;;;;;38.35;5.13;;;16.20;40.40;;;;;;5031392;28;20144;-76
2022/03/12 10:36:11;;;;;;;0.70;0.70;;;16.70;39.20;;;;;;5013675;28;20021;-76
2022/03/12 10:38:45;;;;;;;10.88;4.63;;;17.10;38.30;;;;;;5031308;28;20018;-75
2022/03/12 10:41:11;;;;;;;0.30;0.30;;;17.30;37.40;;;;;;5031893;28;20017;-75
2022/03/12 10:43:50;;;;;;;30.45;4.80;;;17.20;37.70;;;;;;5033829;28;20053;-76
2022/03/12 10:46:27;;;;;;;2.38;2.10;;;17.30;36.80;;;;;;5035048;28;20017;-75
2022/03/12 10:48:58;;;;;;;5.28;3.53;;;17.70;36.30;;;;;;5033843;28;20032;-75
2022/03/12 10:51:28;;;;;;;19.40;6.88;;;18.00;34.90;;;;;;5035106;28;20414;-76
2022/03/12 10:54:07;;;;;;;3.80;2.63;;;18.20;34.50;;;;;;5033723;28;20491;-75
2022/03/12 10:56:46;;;;;;;2.58;1.02;;;18.20;34.30;;;;;;5034835;28;20017;-75
2022/03/12 10:59:21;;;;;;;2.75;1.20;;;18.20;34.40;;;;;;5034865;28;20500;-76
2022/03/12 11:01:52;;;;;;;23.08;15.57;;;18.10;34.60;;;;;;5033635;28;20021;-75
2022/03/12 11:04:19;;;;;;;15.15;5.63;;;17.90;34.10;;;;;;5034729;28;20022;-75
2022/03/12 11:06:45;;;;;;;6.78;1.95;;;17.80;34.10;;;;;;5034509;28;20040;-75
2022/03/12 11:09:42;;;;;;;1.13;1.05;;;17.90;34.70;;;;;;5033481;28;20028;-75
2022/03/12 11:12:30;;;;;;;3.40;2.17;;;17.80;34.50;;;;;;5034661;28;20112;-75
2022/03/12 11:15:16;;;;;;;4.10;3.67;;;17.70;35.00;;;;;;5034692;28;20021;-75
2022/03/12 11:17:51;;;;;;;41.95;6.18;;;17.90;33.30;;;;;;5034417;28;20064;-75
2022/03/12 11:20:27;;;;;;;3.88;2.47;;;18.10;33.30;;;;;;5034332;28;20108;-75
2022/03/12 11:23:26;;;;;;;1.88;1.58;;;18.20;33.50;;;;;;5034323;28;20473;-75
2022/03/12 11:26:11;;;;;;;4.22;1.98;;;18.50;33.40;;;;;;5034082;28;20491;-75
2022/03/12 11:28:37;;;;;;;14.88;4.72;;;18.50;33.30;;;;;;5033142;28;20381;-75
2022/03/12 11:31:06;;;;;;;2.42;1.35;;;17.60;35.00;;;;;;5034291;28;20071;-75
2022/03/12 11:33:32;;;;;;;16.80;6.05;;;17.30;35.30;;;;;;5032941;28;20052;-75
2022/03/12 11:36:09;;;;;;;1.23;1.17;;;17.40;34.70;;;;;;5032870;28;20073;-75
2022/03/12 11:38:36;;;;;;;1.38;1.10;;;17.70;34.40;;;;;;5032672;28;20024;-75
2022/03/12 11:41:20;;;;;;;5.97;4.03;;;18.40;33.30;;;;;;5032719;28;20078;-75
2022/03/12 11:43:47;;;;;;;3.45;2.10;;;18.60;31.90;;;;;;5032813;28;20025;-75
2022/03/12 11:46:14;;;;;;;3.40;2.80;;;18.40;32.20;;;;;;5033847;28;20108;-76
2022/03/12 11:48:41;;;;;;;6.43;3.20;;;18.30;32.40;;;;;;5032610;28;20029;-75
2022/03/12 11:51:23;;;;;;;23.10;11.98;;;18.10;33.50;;;;;;5032564;28;20025;-76
2022/03/12 11:53:49;;;;;;;17.23;7.50;;;18.50;33.30;;;;;;5033091;28;20481;-75
2022/03/12 11:56:16;;;;;;;1.67;1.33;;;18.50;32.50;;;;;;5016172;28;20025;-76
2022/03/12 11:58:47;;;;;;;5.45;2.55;;;18.30;33.80;;;;;;5032537;28;20025;-75
2022/03/12 12:01:20;;;;;;;7.30;2.88;;;18.30;33.30;;;;;;5032624;28;20026;-75
2022/03/12 12:03:50;;;;;;;3.33;2.78;;;18.40;33.80;;;;;;5032368;28;20025;-75
2022/03/12 12:06:16;;;;;;;4.88;3.42;;;18.30;34.10;;;;;;5015793;28;20028;-75
2022/03/12 12:08:43;;;;;;;5.55;4.05;;;18.20;33.80;;;;;;5033460;28;20026;-75
2022/03/12 12:11:11;;;;;;;6.20;4.97;;;18.10;32.80;;;;;;5033411;28;20028;-74
2022/03/12 12:13:37;;;;;;;15.70;4.57;;;17.80;32.60;;;;;;5032511;28;20029;-75
2022/03/12 12:16:06;;;;;;;3.83;2.10;;;18.00;32.30;;;;;;5015617;28;20029;-75
2022/03/12 12:18:31;;;;;;;13.93;5.05;;;18.10;33.20;;;;;;5032286;28;20022;-76
2022/03/12 12:20:57;;;;;;;6.30;4.95;;;18.50;31.60;;;;;;5033243;28;20068;-75
2022/03/12 12:23:23;;;;;;;11.77;3.30;;;18.50;31.90;;;;;;5032225;28;20404;-75
2022/03/12 12:25:49;;;;;;;11.90;5.03;;;18.30;32.30;;;;;;5033503;28;20028;-76
2022/03/12 12:28:23;;;;;;;6.20;4.22;;;18.30;31.70;;;;;;5033611;28;20028;-77
2022/03/12 12:30:55;;;;;;;2.30;2.17;;;18.40;32.70;;;;;;5033200;28;20051;-76
2022/03/12 12:33:24;;;;;;;14.00;5.20;;;18.50;33.10;;;;;;5033131;28;20053;-76
2022/03/12 12:36:10;;;;;;;4.93;3.45;;;18.30;32.60;;;;;;5014987;28;20036;-76
2022/03/12 12:38:39;;;;;;;2.15;1.55;;;17.80;33.70;;;;;;5031281;28;20034;-76
2022/03/12 12:41:06;;;;;;;7.90;3.88;;;17.60;34.10;;;;;;5014920;28;20025;-76
2022/03/12 12:43:39;;;;;;;3.72;3.47;;;17.70;34.00;;;;;;5015174;28;20493;-76
2022/03/12 12:46:17;;;;;;;9.18;4.75;;;17.60;34.30;;;;;;5032952;28;20033;-76
2022/03/12 12:48:48;;;;;;;10.88;4.85;;;17.20;34.60;;;;;;5031594;28;20029;-76
2022/03/12 12:51:15;;;;;;;11.02;6.15;;;16.90;35.00;;;;;;5031534;28;20381;-77
2022/03/12 12:53:46;;;;;;;2.75;1.25;;;16.70;36.10;;;;;;5033108;28;20025;-76
2022/03/12 12:56:40;;;;;;;10.65;6.72;;;16.80;36.50;;;;;;5014709;28;20105;-76
2022/03/12 12:59:09;;;;;;;9.55;4.15;;;16.60;36.80;;;;;;5014711;28;20056;-76